createdAt,value
2022-09-03T06:26:15.945Z,48.60
2022-09-03T06:31:20.010Z,46.80
2022-09-03T06:36:24.153Z,46.94
2022-09-03T06:41:30.839Z,47.75
2022-09-03T06:46:38.912Z,46.47
2022-09-03T06:51:43.347Z,45.01
2022-09-03T06:56:45.926Z,44.49
2022-09-03T07:01:49.245Z,45.02
2022-09-03T07:06:51.920Z,44.50
2022-09-03T07:11:55.121Z,45.34
2022-09-03T07:16:57.470Z,44.36
2022-09-03T07:21:59.995Z,45.39
2022-09-03T07:27:02.428Z,44.49
2022-09-03T07:32:04.948Z,43.80
2022-09-03T07:37:07.385Z,44.26
2022-09-03T07:42:11.065Z,43.64
2022-09-03T07:47:15.070Z,43.41
2022-09-03T07:52:23.001Z,43.29
2022-09-03T07:57:25.416Z,42.69
2022-09-03T08:02:27.727Z,42.43
2022-09-03T08:07:31.094Z,42.33
2022-09-03T08:12:33.407Z,42.04
2022-09-03T08:17:36.162Z,41.94
2022-09-03T08:22:39.169Z,41.56
2022-09-03T08:27:41.877Z,40.10
2022-09-03T08:32:44.157Z,38.69
2022-09-03T08:37:47.587Z,38.39
2022-09-03T08:43:07.062Z,34.32
2022-09-03T08:48:16.499Z,29.84
2022-09-03T08:53:45.389Z,24.91
2022-09-03T08:58:47.753Z,23.51
2022-09-03T09:04:19.538Z,17.85
2022-09-03T09:09:38.090Z,22.88
2022-09-03T09:15:00.362Z,24.47
2022-09-03T09:20:08.632Z,26.20
2022-09-03T09:25:20.901Z,25.92
2022-09-03T09:30:23.195Z,25.67
2022-09-03T09:35:25.698Z,25.92
2022-09-03T09:40:28.084Z,25.27
2022-09-03T09:45:32.510Z,25.26
2022-09-03T09:50:34.759Z,25.04
2022-09-03T09:55:49.176Z,22.10
2022-09-03T10:01:25.879Z,21.15
2022-09-03T10:06:49.383Z,18.10
2022-09-03T10:12:14.604Z,15.23
2022-09-03T10:17:43.802Z,10.65
2022-09-03T10:22:56.984Z,14.33
2022-09-03T10:28:02.101Z,14.28
2022-09-03T10:33:19.072Z,8.99
2022-09-03T10:38:35.807Z,8.80
2022-09-03T10:43:41.731Z,14.07
2022-09-03T10:49:04.534Z,11.89
2022-09-03T10:54:24.393Z,7.85
2022-09-03T10:59:29.612Z,11.65
2022-09-03T11:04:59.028Z,11.37
2022-09-03T11:10:18.371Z,5.34
2022-09-03T11:15:28.079Z,7.08
2022-09-03T11:20:32.440Z,13.49
2022-09-03T11:25:41.291Z,15.69
2022-09-03T11:31:02.023Z,12.10
2022-09-03T11:36:06.563Z,17.27
2022-09-03T11:41:26.291Z,11.05
2022-09-03T11:46:30.717Z,18.06
2022-09-03T11:51:41.989Z,19.78
2022-09-03T11:56:44.420Z,16.65
2022-09-03T12:01:55.838Z,21.26
2022-09-03T12:07:13.828Z,21.66
2022-09-03T12:13:01.065Z,16.64
2022-09-03T12:18:22.584Z,20.64
2022-09-03T12:23:49.299Z,19.86
2022-09-03T12:28:57.532Z,17.91
2022-09-03T12:34:09.742Z,21.48
2022-09-03T12:39:15.325Z,21.96
2022-09-03T12:44:29.918Z,23.07
2022-09-03T12:49:43.024Z,21.60
2022-09-03T12:54:55.108Z,23.02
2022-09-03T13:00:00.903Z,23.07
2022-09-03T13:05:04.804Z,21.65
2022-09-03T13:10:24.805Z,21.80
2022-09-03T13:15:28.466Z,21.78
2022-09-03T13:20:56.689Z,22.43
2022-09-03T13:26:20.817Z,23.87
2022-09-03T13:31:35.341Z,23.91
2022-09-03T13:36:51.708Z,24.50
2022-09-03T13:42:06.976Z,24.54
2022-09-03T13:47:24.171Z,24.24
2022-09-03T13:52:35.003Z,24.54
2022-09-03T13:58:01.854Z,24.44
2022-09-03T14:03:13.091Z,24.62
2022-09-03T14:08:54.332Z,24.80
2022-09-03T14:14:37.072Z,24.78
2022-09-03T14:19:56.596Z,25.30
2022-09-03T14:25:11.481Z,25.35
2022-09-03T14:30:16.863Z,25.23
2022-09-03T14:35:31.724Z,25.36
2022-09-03T14:40:46.460Z,25.90
2022-09-03T14:46:06.861Z,25.52
2022-09-03T14:51:09.181Z,26.56
2022-09-03T14:56:34.910Z,25.54
2022-09-03T15:01:39.360Z,26.52
2022-09-03T15:06:57.114Z,25.25
2022-09-03T15:17:52.339Z,25.88
2022-09-03T15:23:04.675Z,26.31
2022-09-03T15:28:21.569Z,26.56
2022-09-03T15:33:52.239Z,27.16
2022-09-03T15:39:05.744Z,27.10
2022-09-03T15:44:19.677Z,26.94
2022-09-03T15:49:59.417Z,26.86
2022-09-03T15:55:15.212Z,27.18
2022-09-03T16:00:21.475Z,27.56
2022-09-03T16:05:51.438Z,27.74
2022-09-03T16:11:18.642Z,27.79
2022-09-03T16:16:42.730Z,27.75
2022-09-03T16:21:50.297Z,27.90
2022-09-03T16:27:03.112Z,28.02
2022-09-03T16:32:26.998Z,28.28
2022-09-03T16:37:34.700Z,28.05
2022-09-03T16:43:01.593Z,28.46
2022-09-03T16:48:40.772Z,28.72
2022-09-03T16:54:04.995Z,28.72
2022-09-03T16:59:48.353Z,28.62
2022-09-03T17:04:50.673Z,28.91
2022-09-03T17:10:01.857Z,28.98
2022-09-03T17:15:17.105Z,29.11
2022-09-03T17:20:23.572Z,29.29
2022-09-03T17:25:37.048Z,29.67
2022-09-03T17:30:43.080Z,29.61
2022-09-03T17:35:55.098Z,29.81
2022-09-03T17:41:23.285Z,30.35
2022-09-03T17:47:03.386Z,30.41
2022-09-03T17:52:14.685Z,30.49
2022-09-03T17:57:30.891Z,30.51
2022-09-03T18:02:44.993Z,31.32
2022-09-03T18:08:10.434Z,31.25
2022-09-03T18:13:23.873Z,31.60
2022-09-03T18:18:31.897Z,31.92
2022-09-03T18:24:06.339Z,32.38
2022-09-03T18:29:34.763Z,32.75
2022-09-03T18:34:57.003Z,32.29
2022-09-03T18:40:17.807Z,32.28
2022-09-03T18:51:44.077Z,32.46
2022-09-03T18:57:09.975Z,32.60
2022-09-03T19:02:48.504Z,33.14
2022-09-03T19:08:15.410Z,33.31
2022-09-03T19:13:56.297Z,33.49
2022-09-03T19:19:20.232Z,33.87
2022-09-03T19:24:47.505Z,33.71
2022-09-03T19:30:17.456Z,33.69
2022-09-03T19:35:46.382Z,34.14
2022-09-03T19:41:39.495Z,34.19
2022-09-03T19:47:13.950Z,34.13
2022-09-03T19:52:40.988Z,34.11
2022-09-03T19:58:20.619Z,34.40
2022-09-03T20:03:49.113Z,34.00
2022-09-03T20:09:10.444Z,34.09
2022-09-03T20:14:16.200Z,33.84
2022-09-03T20:19:45.517Z,34.31
2022-09-03T20:25:00.773Z,33.96
2022-09-03T20:30:05.375Z,34.04
2022-09-03T20:35:13.433Z,33.95
2022-09-03T20:40:50.119Z,34.24
2022-09-03T20:46:10.451Z,33.98
2022-09-03T20:51:28.235Z,35.04
2022-09-03T20:56:55.434Z,34.76
2022-09-03T21:02:14.383Z,35.83
2022-09-03T21:07:16.667Z,34.22
2022-09-03T21:12:18.844Z,34.09
2022-09-03T21:17:28.743Z,34.17
2022-09-03T21:22:43.212Z,35.22
2022-09-03T21:27:54.204Z,34.61
2022-09-03T21:33:04.903Z,36.73
2022-09-03T21:38:13.221Z,34.64
2022-09-03T21:43:19.181Z,36.23
2022-09-03T21:48:39.932Z,35.04
2022-09-03T21:54:06.609Z,35.44
